Time;durP1;ratioP1;P1;durP2;ratioP2;P2;SDS_P1;SDS_P2;PMS_P1;PMS_P2;Temp;Humidity;BMP_temperature;BMP_pressure;BME280_temperature;BME280_humidity;BME280_pressure;Samples;Min_cycle;Max_cycle;Signal;HPM_P1;HPM_P2
2022/08/09 00:01:18;;;;;;;2.55;2.40;;;18.00;78.90;;;;;;5024037;28;20264;-77
2022/08/09 00:03:43;;;;;;;1.92;1.83;;;17.90;80.00;;;;;;5021881;28;20172;-75
2022/08/09 00:06:09;;;;;;;2.10;2.00;;;17.80;79.80;;;;;;5031361;28;20204;-75
2022/08/09 00:08:34;;;;;;;2.53;1.88;;;17.70;81.40;;;;;;5022202;28;20181;-75
2022/08/09 00:11:00;;;;;;;2.00;1.90;;;17.60;82.00;;;;;;5018872;28;20264;-75
2022/08/09 00:13:26;;;;;;;2.90;2.10;;;17.60;82.10;;;;;;5024832;28;20201;-75
2022/08/09 00:15:52;;;;;;;1.80;1.70;;;17.60;82.00;;;;;;5024075;28;20616;-78
2022/08/09 00:18:18;;;;;;;1.95;1.85;;;17.60;82.10;;;;;;5032114;28;20259;-75
2022/08/09 00:20:43;;;;;;;2.55;2.25;;;17.50;82.50;;;;;;5021859;28;20195;-77
2022/08/09 00:23:09;;;;;;;2.63;2.03;;;17.50;82.50;;;;;;5021100;28;20276;-76
2022/08/09 00:25:35;;;;;;;2.92;2.13;;;17.60;82.80;;;;;;5026161;28;20209;-77
2022/08/09 00:28:00;;;;;;;2.03;1.80;;;17.50;83.20;;;;;;5025588;28;20192;-77
2022/08/09 00:30:26;;;;;;;2.00;1.90;;;17.40;83.90;;;;;;5023482;28;20201;-78
2022/08/09 00:32:51;;;;;;;2.00;1.90;;;17.40;85.00;;;;;;5023034;28;20193;-77
2022/08/09 00:35:17;;;;;;;3.80;1.80;;;17.40;85.00;;;;;;5032476;28;20200;-79
2022/08/09 00:37:43;;;;;;;2.10;2.00;;;17.30;84.90;;;;;;5027556;28;20176;-80
2022/08/09 00:40:09;;;;;;;2.17;2.08;;;17.30;84.90;;;;;;5021168;28;20204;-79
2022/08/09 00:42:35;;;;;;;2.22;1.75;;;17.30;84.60;;;;;;5018297;28;20176;-79
2022/08/09 00:45:03;;;;;;;2.00;1.90;;;17.30;84.70;;;;;;5020034;28;20791;-79
2022/08/09 00:47:29;;;;;;;1.73;1.63;;;17.20;85.10;;;;;;5027380;28;20216;-79
2022/08/09 00:49:54;;;;;;;2.33;1.90;;;17.20;85.00;;;;;;5028000;28;20192;-78
2022/08/09 00:52:21;;;;;;;3.05;1.80;;;17.20;85.90;;;;;;5023292;28;20185;-79
2022/08/09 00:54:49;;;;;;;2.97;1.70;;;17.20;85.50;;;;;;5028139;28;20179;-79
2022/08/09 00:57:15;;;;;;;2.25;2.15;;;17.10;86.70;;;;;;5026696;28;20204;-79
2022/08/09 00:59:42;;;;;;;3.35;2.05;;;17.10;87.30;;;;;;5024829;28;20573;-79
2022/08/09 01:02:08;;;;;;;1.90;1.80;;;17.00;88.10;;;;;;5026480;28;20177;-79
2022/08/09 01:04:47;;;;;;;2.65;2.10;;;16.90;88.50;;;;;;5028899;28;20184;-79
2022/08/09 01:07:26;;;;;;;1.80;1.70;;;16.90;88.80;;;;;;5027302;28;20177;-80
2022/08/09 01:10:01;;;;;;;3.05;1.98;;;16.80;88.20;;;;;;5032168;28;20558;-80
2022/08/09 01:12:33;;;;;;;2.50;2.30;;;16.80;88.20;;;;;;5032184;28;20196;-80
2022/08/09 01:15:02;;;;;;;1.73;1.60;;;16.80;88.90;;;;;;5019267;28;20691;-80
2022/08/09 01:17:37;;;;;;;2.00;1.90;;;16.70;89.70;;;;;;5035362;28;20685;-80
2022/08/09 01:20:03;;;;;;;3.17;1.85;;;16.70;89.50;;;;;;5030644;28;20204;-80
2022/08/09 01:22:51;;;;;;;2.00;1.90;;;16.70;89.40;;;;;;5036321;28;20172;-79
2022/08/09 01:25:38;;;;;;;1.90;1.80;;;16.70;89.30;;;;;;5033311;28;20203;-80
2022/08/09 01:28:06;;;;;;;2.00;1.90;;;16.70;89.60;;;;;;5031411;28;20171;-80
2022/08/09 01:30:34;;;;;;;2.17;1.95;;;16.70;89.60;;;;;;5039922;28;20223;-79
2022/08/09 01:33:01;;;;;;;2.20;2.10;;;16.70;89.70;;;;;;5038193;28;20180;-80
2022/08/09 01:35:38;;;;;;;2.65;2.05;;;16.60;90.00;;;;;;5039617;28;20197;-84
2022/08/09 01:38:08;;;;;;;1.63;1.55;;;16.60;90.40;;;;;;5038417;28;20183;-80
2022/08/09 01:40:35;;;;;;;2.80;1.70;;;16.60;90.60;;;;;;5042783;28;20176;-83
2022/08/09 01:43:04;;;;;;;2.20;1.98;;;16.50;91.00;;;;;;5047717;28;20199;-83
2022/08/09 01:45:30;;;;;;;2.42;2.15;;;16.40;91.10;;;;;;5036847;28;20242;-83
2022/08/09 01:47:58;;;;;;;1.88;1.70;;;16.40;91.50;;;;;;5037431;28;20173;-83
2022/08/09 01:50:26;;;;;;;1.70;1.60;;;16.30;92.40;;;;;;5035538;28;20670;-81
2022/08/09 01:52:54;;;;;;;2.00;1.90;;;16.20;92.70;;;;;;5034994;28;20782;-82
2022/08/09 01:55:21;;;;;;;1.75;1.63;;;16.10;93.30;;;;;;5038595;28;20203;-83
2022/08/09 01:57:49;;;;;;;3.35;1.98;;;16.10;93.50;;;;;;5040448;28;20169;-83
2022/08/09 02:00:16;;;;;;;1.85;1.75;;;16.20;93.60;;;;;;5031317;28;20224;-81
2022/08/09 02:02:49;;;;;;;1.98;1.88;;;16.20;93.80;;;;;;5040946;28;20168;-80
2022/08/09 02:05:50;;;;;;;3.70;1.85;;;16.20;93.80;;;;;;5037178;28;20298;-81
2022/08/09 02:08:18;;;;;;;2.13;2.03;;;16.20;94.00;;;;;;5040346;28;20208;-82
2022/08/09 02:10:48;;;;;;;1.98;1.88;;;16.20;94.10;;;;;;5035443;28;20187;-81
2022/08/09 02:13:16;;;;;;;1.98;1.88;;;16.10;94.40;;;;;;5038605;28;20192;-80
2022/08/09 02:15:46;;;;;;;2.25;1.70;;;15.90;94.90;;;;;;5048477;28;20201;-82
2022/08/09 02:18:14;;;;;;;2.13;2.03;;;15.80;96.10;;;;;;5047694;28;20164;-82
2022/08/09 02:20:44;;;;;;;2.58;1.73;;;15.70;96.40;;;;;;5040336;28;20656;-82
2022/08/09 02:23:26;;;;;;;2.10;2.00;;;15.70;97.20;;;;;;5027662;28;20193;-82
2022/08/09 02:25:57;;;;;;;2.17;2.08;;;15.60;97.20;;;;;;5037822;28;20192;-82
2022/08/09 02:28:31;;;;;;;2.10;1.75;;;15.60;97.20;;;;;;5029794;28;20178;-81
2022/08/09 02:31:04;;;;;;;2.13;1.90;;;15.60;97.40;;;;;;5041309;28;20177;-81
2022/08/09 02:33:36;;;;;;;2.13;2.03;;;15.60;97.30;;;;;;5041847;28;20211;-80
2022/08/09 02:36:05;;;;;;;2.10;2.00;;;15.70;97.10;;;;;;5054754;28;20570;-80
2022/08/09 02:38:35;;;;;;;4.57;2.08;;;15.70;96.80;;;;;;5032445;28;20200;-80
2022/08/09 02:41:09;;;;;;;2.35;2.20;;;15.80;96.80;;;;;;5034312;28;20259;-80
2022/08/09 02:43:38;;;;;;;2.40;2.20;;;15.80;96.80;;;;;;5043272;28;20180;-80
2022/08/09 02:46:07;;;;;;;2.38;2.10;;;15.70;96.90;;;;;;5033375;28;20209;-81
2022/08/09 02:48:35;;;;;;;2.03;1.92;;;15.60;97.40;;;;;;5034755;28;20207;-81
2022/08/09 02:51:02;;;;;;;3.88;2.17;;;15.50;97.70;;;;;;5035901;28;20559;-79
2022/08/09 02:53:32;;;;;;;2.15;2.05;;;15.50;98.40;;;;;;5032506;28;20177;-79
2022/08/09 02:55:59;;;;;;;1.90;1.80;;;15.40;98.70;;;;;;5036129;28;20229;-80
2022/08/09 02:58:30;;;;;;;2.40;2.30;;;15.40;98.70;;;;;;5034005;28;20735;-77
2022/08/09 03:00:58;;;;;;;2.20;2.10;;;15.30;98.70;;;;;;5031234;28;20192;-77
2022/08/09 03:03:25;;;;;;;1.98;1.88;;;15.30;99.10;;;;;;5022657;28;20583;-77
2022/08/09 03:05:59;;;;;;;2.75;2.53;;;15.30;98.90;;;;;;5028428;28;20209;-77
2022/08/09 03:08:26;;;;;;;3.42;2.40;;;15.40;98.70;;;;;;5015559;28;20651;-77
2022/08/09 03:10:53;;;;;;;2.35;2.15;;;15.50;98.70;;;;;;5027081;28;20234;-77
2022/08/09 03:13:21;;;;;;;2.38;2.17;;;15.40;98.40;;;;;;5028667;28;20618;-77
2022/08/09 03:15:47;;;;;;;2.28;2.13;;;15.50;98.40;;;;;;5024588;28;20208;-77
2022/08/09 03:18:13;;;;;;;2.28;2.17;;;15.40;98.50;;;;;;5028644;28;20177;-77
2022/08/09 03:20:42;;;;;;;2.78;2.05;;;15.40;99.20;;;;;;5024702;28;20181;-78
2022/08/09 03:23:09;;;;;;;2.28;2.13;;;15.30;99.90;;;;;;5021151;28;20177;-76
2022/08/09 03:25:37;;;;;;;2.55;2.40;;;15.20;99.90;;;;;;5030691;28;20219;-77
2022/08/09 03:28:04;;;;;;;3.00;2.15;;;15.10;99.90;;;;;;5028375;28;20188;-77
2022/08/09 03:30:30;;;;;;;2.00;1.90;;;15.10;99.90;;;;;;5034514;28;20177;-77
2022/08/09 03:32:57;;;;;;;2.15;2.05;;;15.10;99.90;;;;;;5036594;28;20229;-79
2022/08/09 03:35:23;;;;;;;2.10;2.00;;;15.00;99.90;;;;;;5035018;28;20246;-77
2022/08/09 03:37:49;;;;;;;3.08;2.35;;;15.00;99.90;;;;;;5024220;28;20164;-77
2022/08/09 03:40:15;;;;;;;2.72;2.30;;;15.10;99.90;;;;;;5038398;28;20641;-77
2022/08/09 03:42:40;;;;;;;2.05;1.95;;;15.10;99.90;;;;;;5032945;28;20176;-77
2022/08/09 03:45:07;;;;;;;2.17;2.08;;;15.10;99.90;;;;;;5035653;28;20205;-76
2022/08/09 03:47:33;;;;;;;2.22;2.13;;;15.00;99.90;;;;;;5030232;28;20234;-76
2022/08/09 03:50:00;;;;;;;2.25;2.10;;;15.10;99.90;;;;;;5036295;28;20173;-76
2022/08/09 03:52:28;;;;;;;2.50;2.20;;;15.00;99.90;;;;;;5033469;28;20187;-76
2022/08/09 03:54:55;;;;;;;2.85;2.20;;;15.00;99.90;;;;;;5034557;28;20184;-76
2022/08/09 03:57:21;;;;;;;2.47;2.33;;;15.10;99.90;;;;;;5039131;28;20187;-76
2022/08/09 03:59:48;;;;;;;2.53;2.22;;;15.00;99.90;;;;;;5038707;28;20212;-76
2022/08/09 04:02:14;;;;;;;2.40;2.20;;;15.10;99.90;;;;;;5039754;28;20767;-75
2022/08/09 04:04:39;;;;;;;2.65;2.42;;;15.10;99.90;;;;;;5032112;28;20263;-76
2022/08/09 04:07:05;;;;;;;2.72;2.17;;;15.20;99.90;;;;;;5026288;28;20255;-76
2022/08/09 04:09:31;;;;;;;3.40;2.40;;;15.10;99.90;;;;;;5023557;28;20274;-76
2022/08/09 04:12:44;;;;;;;2.35;2.20;;;15.10;99.90;;;;;;5029387;28;20192;-75
2022/08/09 04:15:10;;;;;;;3.80;2.30;;;15.10;99.90;;;;;;5024378;28;20297;-76
2022/08/09 04:17:35;;;;;;;4.65;2.60;;;15.00;99.90;;;;;;5037680;28;20185;-76
2022/08/09 04:20:01;;;;;;;2.83;2.50;;;15.00;99.90;;;;;;5028495;28;20211;-76
2022/08/09 04:22:27;;;;;;;2.20;2.08;;;15.00;99.90;;;;;;5031627;28;20181;-76
2022/08/09 04:24:53;;;;;;;3.15;2.50;;;15.00;99.90;;;;;;5028074;28;20187;-75
2022/08/09 04:27:19;;;;;;;2.83;2.63;;;14.90;99.90;;;;;;5028308;28;20177;-75
2022/08/09 04:29:44;;;;;;;2.67;2.58;;;15.00;99.90;;;;;;5029164;28;20176;-75
2022/08/09 04:32:10;;;;;;;5.35;2.60;;;15.00;99.90;;;;;;5033588;28;20235;-75
2022/08/09 04:34:35;;;;;;;3.10;2.45;;;15.10;99.90;;;;;;5027962;28;20212;-75
2022/08/09 04:37:01;;;;;;;2.92;2.60;;;15.10;99.90;;;;;;5020057;28;20243;-75
2022/08/09 04:39:27;;;;;;;3.58;2.03;;;15.20;99.90;;;;;;5021598;28;20220;-76
2022/08/09 04:41:53;;;;;;;3.20;1.95;;;15.20;99.90;;;;;;5022278;28;20181;-76
2022/08/09 04:44:19;;;;;;;2.70;2.50;;;15.20;99.90;;;;;;5028042;28;20178;-76
2022/08/09 04:46:44;;;;;;;3.22;2.67;;;15.20;99.90;;;;;;5027019;28;20402;-76
2022/08/09 04:49:10;;;;;;;4.63;2.83;;;15.20;99.90;;;;;;5019824;28;20184;-76
2022/08/09 04:51:35;;;;;;;2.80;2.60;;;15.30;99.90;;;;;;5028213;28;20187;-75
2022/08/09 04:54:01;;;;;;;3.00;2.25;;;15.40;99.90;;;;;;5021883;28;20643;-76
2022/08/09 04:56:29;;;;;;;2.47;2.35;;;15.50;99.90;;;;;;5040338;28;20212;-80
2022/08/09 04:58:54;;;;;;;2.75;2.55;;;15.50;99.90;;;;;;5027430;28;20208;-79
2022/08/09 05:01:20;;;;;;;4.85;2.20;;;15.60;99.90;;;;;;5028249;28;20182;-80
2022/08/09 05:03:47;;;;;;;4.25;2.58;;;15.70;99.90;;;;;;5029157;28;20652;-80
2022/08/09 05:06:13;;;;;;;4.75;2.50;;;15.80;99.90;;;;;;5035010;28;20671;-79
2022/08/09 05:08:39;;;;;;;4.38;2.88;;;15.80;99.90;;;;;;5040129;28;20247;-80
2022/08/09 05:11:06;;;;;;;2.78;2.22;;;15.90;99.90;;;;;;5038932;28;20192;-80
2022/08/09 05:13:31;;;;;;;6.75;2.45;;;16.00;99.90;;;;;;5042093;28;20199;-80
2022/08/09 05:15:57;;;;;;;4.78;2.72;;;16.10;99.90;;;;;;5035565;28;20209;-81
2022/08/09 05:18:28;;;;;;;2.53;2.38;;;16.10;99.90;;;;;;5037329;28;20197;-80
2022/08/09 05:20:55;;;;;;;5.03;2.63;;;16.20;99.90;;;;;;5030873;28;20203;-81
2022/08/09 05:23:21;;;;;;;5.72;2.42;;;16.30;99.90;;;;;;5036345;28;20180;-81
2022/08/09 05:25:48;;;;;;;4.65;2.70;;;16.40;99.90;;;;;;5048438;28;20200;-80
2022/08/09 05:28:13;;;;;;;2.92;2.60;;;16.50;99.90;;;;;;5030783;28;20185;-81
2022/08/09 05:30:39;;;;;;;2.50;2.30;;;16.60;99.90;;;;;;5050583;28;20202;-81
2022/08/09 05:33:05;;;;;;;2.97;1.95;;;16.70;99.90;;;;;;5041029;28;20180;-82
2022/08/09 05:35:30;;;;;;;4.55;2.92;;;16.80;99.40;;;;;;5031930;28;20235;-82
2022/08/09 05:37:56;;;;;;;2.97;2.17;;;16.90;99.50;;;;;;5031588;28;20388;-81
2022/08/09 05:40:24;;;;;;;2.75;2.10;;;17.00;99.30;;;;;;5035283;28;20288;-84
2022/08/09 05:42:50;;;;;;;3.60;1.90;;;17.10;98.60;;;;;;5057917;28;20176;-81
2022/08/09 05:45:16;;;;;;;2.92;2.10;;;17.10;98.10;;;;;;5037962;28;20226;-81
2022/08/09 05:47:41;;;;;;;2.10;1.90;;;17.30;98.00;;;;;;5034931;28;20187;-84
2022/08/09 05:50:08;;;;;;;2.80;1.95;;;17.40;97.40;;;;;;5028211;28;20177;-81
2022/08/09 05:52:34;;;;;;;2.13;1.90;;;17.40;96.70;;;;;;5038658;28;20188;-81
2022/08/09 05:55:00;;;;;;;2.13;1.92;;;17.60;96.60;;;;;;5035787;28;20201;-79
2022/08/09 05:57:26;;;;;;;2.67;1.80;;;17.70;96.10;;;;;;5039599;28;20620;-79
2022/08/09 05:59:51;;;;;;;3.25;2.05;;;17.70;95.60;;;;;;5034518;28;20263;-80
2022/08/09 06:02:17;;;;;;;4.07;1.95;;;17.80;95.60;;;;;;5031007;28;20241;-80
2022/08/09 06:04:43;;;;;;;1.80;1.70;;;17.90;95.20;;;;;;5045782;28;20176;-79
2022/08/09 06:07:08;;;;;;;2.60;2.22;;;18.00;95.10;;;;;;5030566;28;20181;-81
2022/08/09 06:09:34;;;;;;;2.22;1.90;;;18.00;94.90;;;;;;5029515;28;20184;-83
2022/08/09 06:12:00;;;;;;;5.40;2.20;;;18.10;95.00;;;;;;5042532;28;20219;-81
2022/08/09 06:14:25;;;;;;;2.17;2.08;;;18.10;94.50;;;;;;5034022;28;20177;-83
2022/08/09 06:16:51;;;;;;;3.35;1.90;;;18.10;94.80;;;;;;5038378;28;20279;-82
2022/08/09 06:19:17;;;;;;;1.98;1.77;;;18.20;94.60;;;;;;5037552;28;20203;-83
2022/08/09 06:21:43;;;;;;;1.75;1.63;;;18.30;94.60;;;;;;5046844;28;20264;-82
2022/08/09 06:24:09;;;;;;;2.22;1.80;;;18.40;93.90;;;;;;5030627;28;20602;-82
2022/08/09 06:26:37;;;;;;;4.15;1.98;;;18.50;93.90;;;;;;5038822;28;20200;-82
2022/08/09 06:29:03;;;;;;;4.45;2.10;;;18.60;94.00;;;;;;5041355;28;20200;-82
2022/08/09 06:31:29;;;;;;;3.63;1.98;;;18.60;93.50;;;;;;5036633;28;20177;-81
2022/08/09 06:33:54;;;;;;;2.17;2.08;;;18.70;93.40;;;;;;5043151;28;20192;-82
2022/08/09 06:36:20;;;;;;;2.40;2.08;;;18.90;93.10;;;;;;5033360;28;20266;-84
2022/08/09 06:38:46;;;;;;;3.13;2.10;;;18.90;93.00;;;;;;5040321;28;20235;-82
2022/08/09 06:41:12;;;;;;;1.83;1.80;;;19.00;92.70;;;;;;5029440;28;20248;-83
2022/08/09 06:43:37;;;;;;;2.45;2.20;;;19.10;92.30;;;;;;5066147;28;20272;-81
2022/08/09 06:46:03;;;;;;;2.40;2.20;;;19.30;92.30;;;;;;5034314;28;20589;-81
2022/08/09 06:48:29;;;;;;;3.33;1.92;;;19.40;91.50;;;;;;5038655;28;20184;-81
2022/08/09 06:50:54;;;;;;;2.30;2.10;;;19.50;91.70;;;;;;5042535;28;20267;-79
2022/08/09 06:53:20;;;;;;;3.47;2.42;;;19.60;91.20;;;;;;5039902;28;20178;-80
2022/08/09 06:55:46;;;;;;;4.15;2.22;;;19.70;91.00;;;;;;5043841;28;20196;-82
2022/08/09 06:58:11;;;;;;;2.13;2.03;;;19.80;90.60;;;;;;5034687;28;20667;-82
2022/08/09 07:00:37;;;;;;;2.78;1.85;;;19.90;90.30;;;;;;5026451;28;20187;-81
2022/08/09 07:03:03;;;;;;;6.03;2.20;;;20.00;90.00;;;;;;5036240;28;20188;-81
2022/08/09 07:05:28;;;;;;;3.65;2.00;;;20.10;90.00;;;;;;5035287;28;20564;-79
2022/08/09 07:07:54;;;;;;;1.92;1.73;;;20.30;89.60;;;;;;5043078;28;20172;-80
2022/08/09 07:10:22;;;;;;;2.30;1.60;;;20.40;88.80;;;;;;5040491;28;20189;-81
2022/08/09 07:12:48;;;;;;;2.03;1.70;;;20.50;89.10;;;;;;5050817;28;20273;-81
2022/08/09 07:15:14;;;;;;;3.97;1.95;;;20.60;87.70;;;;;;5037397;28;20288;-77
2022/08/09 07:17:40;;;;;;;3.22;2.00;;;20.80;86.70;;;;;;5033636;28;20671;-80
2022/08/09 07:20:06;;;;;;;2.05;1.70;;;20.90;87.00;;;;;;5038399;28;20201;-79
2022/08/09 07:22:32;;;;;;;3.08;1.70;;;21.00;87.10;;;;;;5041910;28;20813;-80
2022/08/09 07:24:57;;;;;;;2.63;1.90;;;21.10;85.20;;;;;;5030769;28;20221;-80
2022/08/09 07:27:24;;;;;;;2.50;2.30;;;21.20;84.80;;;;;;5034621;28;20212;-81
2022/08/09 07:29:49;;;;;;;7.43;1.98;;;21.40;84.30;;;;;;5037542;28;20172;-81
2022/08/09 07:32:15;;;;;;;2.17;1.90;;;21.50;83.50;;;;;;5034197;28;20188;-80
2022/08/09 07:34:41;;;;;;;2.22;1.60;;;21.60;82.70;;;;;;5028414;28;20189;-82
2022/08/09 07:37:07;;;;;;;2.80;1.80;;;21.70;81.00;;;;;;5034347;28;20173;-82
2022/08/09 07:39:32;;;;;;;3.97;2.35;;;21.80;81.40;;;;;;5043088;28;20242;-82
2022/08/09 07:41:58;;;;;;;2.88;1.70;;;21.90;81.10;;;;;;5030943;28;20185;-79
2022/08/09 07:44:24;;;;;;;2.50;1.88;;;22.10;80.20;;;;;;5031466;28;20207;-80
2022/08/09 07:46:49;;;;;;;1.95;1.55;;;22.20;77.00;;;;;;5032088;28;20193;-80
2022/08/09 07:49:15;;;;;;;1.83;1.73;;;22.30;77.60;;;;;;5034440;28;20189;-80
2022/08/09 07:51:41;;;;;;;2.97;1.75;;;22.40;77.10;;;;;;5029491;28;20562;-80
2022/08/09 07:54:06;;;;;;;3.17;1.58;;;22.60;76.50;;;;;;5033484;28;20234;-79
2022/08/09 07:56:32;;;;;;;3.28;2.00;;;22.70;76.00;;;;;;5035704;28;20212;-80
2022/08/09 07:58:58;;;;;;;5.57;2.08;;;22.80;75.30;;;;;;5027505;28;20196;-81
2022/08/09 08:01:24;;;;;;;2.25;1.88;;;22.90;73.50;;;;;;5033404;28;20176;-78
2022/08/09 08:03:50;;;;;;;5.28;1.92;;;23.00;74.50;;;;;;5054749;28;20662;-79
2022/08/09 08:06:15;;;;;;;2.28;1.67;;;23.10;74.40;;;;;;5046070;28;20203;-79
2022/08/09 08:08:41;;;;;;;4.40;1.70;;;23.20;72.00;;;;;;5024927;28;20233;-76
2022/08/09 08:11:07;;;;;;;3.80;1.98;;;23.30;72.20;;;;;;5020777;28;20382;-76
2022/08/09 08:13:32;;;;;;;2.85;1.63;;;23.40;70.50;;;;;;5029618;28;20201;-77
2022/08/09 08:15:58;;;;;;;3.22;2.00;;;23.50;71.20;;;;;;5030083;28;20702;-78
2022/08/09 08:18:23;;;;;;;2.97;1.63;;;23.50;70.20;;;;;;5026456;28;20211;-76
2022/08/09 08:20:50;;;;;;;3.72;1.90;;;23.60;70.70;;;;;;5033135;28;20548;-77
2022/08/09 08:23:17;;;;;;;1.70;1.60;;;23.70;67.70;;;;;;5020045;28;20739;-77
2022/08/09 08:25:46;;;;;;;3.63;1.80;;;23.70;68.70;;;;;;5040840;28;20670;-77
2022/08/09 08:28:12;;;;;;;6.45;1.70;;;23.70;67.30;;;;;;5025091;28;20177;-77
2022/08/09 08:30:37;;;;;;;2.83;1.67;;;23.80;67.80;;;;;;5027452;28;20186;-78
2022/08/09 08:33:03;;;;;;;1.92;1.75;;;23.80;67.50;;;;;;5024038;28;20317;-79
2022/08/09 08:35:29;;;;;;;3.45;1.60;;;23.90;66.40;;;;;;5026277;28;20209;-78
2022/08/09 08:37:55;;;;;;;3.45;1.98;;;24.00;68.00;;;;;;5031785;28;20209;-78
2022/08/09 08:40:21;;;;;;;2.10;1.60;;;24.00;64.80;;;;;;5024004;28;20753;-76
2022/08/09 08:42:47;;;;;;;4.05;1.85;;;24.00;65.70;;;;;;5029898;28;20188;-77
2022/08/09 08:45:15;;;;;;;3.63;1.52;;;24.10;64.70;;;;;;5027448;28;20288;-80
2022/08/09 08:47:43;;;;;;;2.65;1.33;;;24.10;66.70;;;;;;5034343;28;20180;-79
2022/08/09 08:50:14;;;;;;;1.98;1.88;;;24.20;65.50;;;;;;5026798;28;20612;-78
2022/08/09 08:52:40;;;;;;;1.58;1.48;;;24.30;66.40;;;;;;5031964;28;20551;-78
2022/08/09 08:55:06;;;;;;;1.88;1.42;;;24.50;64.70;;;;;;5028250;28;20208;-78
2022/08/09 08:57:32;;;;;;;1.77;1.52;;;24.60;64.50;;;;;;5032656;28;20671;-77
2022/08/09 08:59:58;;;;;;;1.15;1.15;;;24.70;63.90;;;;;;5019114;28;20303;-74
2022/08/09 09:02:25;;;;;;;1.55;1.45;;;24.90;63.00;;;;;;5025566;28;20177;-73
2022/08/09 09:04:53;;;;;;;4.43;1.30;;;24.90;62.10;;;;;;5022823;28;20184;-73
2022/08/09 09:07:19;;;;;;;3.47;1.38;;;25.00;61.80;;;;;;5025372;28;20188;-72
2022/08/09 09:09:47;;;;;;;1.25;1.20;;;25.20;61.20;;;;;;5029249;28;20688;-73
2022/08/09 09:12:15;;;;;;;1.65;1.55;;;25.30;60.50;;;;;;5018452;28;20193;-74
2022/08/09 09:14:43;;;;;;;3.42;1.50;;;25.40;60.00;;;;;;5024498;28;20180;-74
2022/08/09 09:17:09;;;;;;;7.63;1.42;;;25.40;60.10;;;;;;5026529;28;20183;-73
2022/08/09 09:19:35;;;;;;;2.05;1.30;;;25.60;60.30;;;;;;5025582;28;20208;-73
2022/08/09 09:22:03;;;;;;;1.48;1.40;;;25.80;58.80;;;;;;5032647;28;20177;-75
2022/08/09 09:24:44;;;;;;;2.17;1.20;;;26.10;58.00;;;;;;5024523;28;20201;-78
2022/08/09 09:27:12;;;;;;;2.95;1.33;;;26.70;58.30;;;;;;5018646;28;20188;-70
2022/08/09 09:29:41;;;;;;;1.35;1.33;;;28.30;55.40;;;;;;5019208;28;20188;-72
2022/08/09 09:32:07;;;;;;;1.55;1.45;;;30.70;50.90;;;;;;5020901;28;20552;-72
2022/08/09 09:34:34;;;;;;;2.97;1.85;;;33.00;47.50;;;;;;5019107;28;20206;-74
2022/08/09 09:37:00;;;;;;;1.30;1.20;;;34.90;43.50;;;;;;5018421;28;20206;-74
2022/08/09 09:39:28;;;;;;;1.80;1.10;;;36.20;39.90;;;;;;5022094;28;20208;-74
2022/08/09 09:41:55;;;;;;;1.08;1.08;;;36.40;40.30;;;;;;5017853;28;20218;-71
2022/08/09 09:44:31;;;;;;;1.80;1.42;;;37.40;39.00;;;;;;5018905;28;20199;-69
2022/08/09 09:47:08;;;;;;;3.63;1.30;;;38.20;37.70;;;;;;5025437;28;20249;-69
2022/08/09 09:49:34;;;;;;;1.55;1.10;;;39.50;37.30;;;;;;5019529;28;20187;-70
2022/08/09 09:52:03;;;;;;;1.67;1.42;;;40.20;34.60;;;;;;5020965;28;20184;-71
2022/08/09 09:54:36;;;;;;;2.47;1.10;;;40.80;34.00;;;;;;5018887;28;20211;-70
2022/08/09 09:57:22;;;;;;;1.40;1.30;;;41.20;34.10;;;;;;5020364;28;20200;-70
2022/08/09 09:59:49;;;;;;;2.38;0.98;;;41.20;32.70;;;;;;5019849;28;20203;-73
2022/08/09 10:02:17;;;;;;;1.60;1.20;;;41.60;33.00;;;;;;5021010;28;20738;-72
2022/08/09 10:04:44;;;;;;;0.85;0.85;;;41.60;33.00;;;;;;5020500;28;20207;-73
2022/08/09 10:07:26;;;;;;;2.10;1.42;;;41.60;32.90;;;;;;5021643;28;20263;-74
2022/08/09 10:09:54;;;;;;;2.10;1.50;;;41.40;32.50;;;;;;5018330;28;20192;-72
2022/08/09 10:12:26;;;;;;;1.30;1.20;;;41.50;32.60;;;;;;5028333;28;20579;-72
2022/08/09 10:15:04;;;;;;;1.15;1.10;;;42.10;31.60;;;;;;5023927;28;20189;-73
2022/08/09 10:17:33;;;;;;;2.85;1.00;;;42.60;31.30;;;;;;5018620;28;20180;-74
2022/08/09 10:20:01;;;;;;;1.42;1.10;;;43.20;30.90;;;;;;5022896;28;20231;-73
2022/08/09 10:22:35;;;;;;;1.70;1.20;;;43.40;30.70;;;;;;5032802;28;20616;-72
2022/08/09 10:25:04;;;;;;;1.20;1.10;;;43.50;30.40;;;;;;5028213;28;20287;-72
2022/08/09 10:27:31;;;;;;;0.80;0.77;;;43.50;30.30;;;;;;5022585;28;20215;-73
2022/08/09 10:29:58;;;;;;;1.35;1.10;;;43.70;29.90;;;;;;5017296;28;20184;-73
2022/08/09 10:32:24;;;;;;;1.98;1.33;;;43.70;29.80;;;;;;5018335;28;20180;-73
2022/08/09 10:34:50;;;;;;;1.77;1.13;;;43.60;30.00;;;;;;5018817;28;20196;-73
2022/08/09 10:37:17;;;;;;;3.42;1.30;;;43.80;30.20;;;;;;5028720;28;20194;-74
2022/08/09 10:39:43;;;;;;;1.08;0.93;;;43.80;29.90;;;;;;5032327;28;20687;-72
2022/08/09 10:42:09;;;;;;;1.23;1.20;;;44.00;29.90;;;;;;5030034;28;20268;-72
2022/08/09 10:44:36;;;;;;;2.05;1.17;;;43.60;29.90;;;;;;5031852;28;20267;-72
2022/08/09 10:47:35;;;;;;;1.70;1.08;;;43.20;30.00;;;;;;5029153;28;20208;-72
2022/08/09 10:50:04;;;;;;;0.98;0.98;;;43.40;30.20;;;;;;5038781;28;20206;-72
2022/08/09 10:52:49;;;;;;;1.50;0.80;;;43.70;29.70;;;;;;5027742;28;20189;-73
2022/08/09 10:55:22;;;;;;;1.58;1.27;;;43.80;29.60;;;;;;5035811;28;20687;-73
2022/08/09 10:57:49;;;;;;;1.00;0.88;;;44.10;29.40;;;;;;5029320;28;20190;-72
2022/08/09 11:00:43;;;;;;;1.20;1.10;;;44.30;29.20;;;;;;5026287;28;20235;-71
2022/08/09 11:03:24;;;;;;;1.88;1.30;;;44.30;29.30;;;;;;5029478;28;20725;-73
2022/08/09 11:06:14;;;;;;;3.20;1.00;;;44.00;29.40;;;;;;5021222;28;20262;-72
2022/08/09 11:08:42;;;;;;;1.58;1.00;;;44.40;29.60;;;;;;5029872;28;20543;-72
2022/08/09 11:11:08;;;;;;;1.63;1.40;;;44.80;29.90;;;;;;5023645;28;20713;-72
2022/08/09 11:13:34;;;;;;;1.80;1.30;;;45.00;29.30;;;;;;5032001;28;20923;-71
2022/08/09 11:16:37;;;;;;;1.13;1.10;;;44.90;29.20;;;;;;5024957;28;20199;-71
2022/08/09 11:19:05;;;;;;;1.70;1.33;;;45.00;29.20;;;;;;5023301;28;20203;-72
2022/08/09 11:21:50;;;;;;;1.20;1.00;;;44.50;28.90;;;;;;5030916;28;20716;-71
2022/08/09 11:24:17;;;;;;;2.15;0.98;;;44.10;29.50;;;;;;5021297;28;20185;-72
2022/08/09 11:26:43;;;;;;;2.47;0.98;;;44.00;29.50;;;;;;5027074;28;20322;-71
2022/08/09 11:29:47;;;;;;;1.95;1.00;;;44.00;29.10;;;;;;5021620;28;20263;-73
2022/08/09 11:32:39;;;;;;;1.15;0.85;;;44.10;29.60;;;;;;5027350;28;20717;-72
2022/08/09 11:35:26;;;;;;;1.23;1.08;;;44.50;29.20;;;;;;5016841;28;20239;-72
2022/08/09 11:37:56;;;;;;;0.82;0.82;;;44.80;29.30;;;;;;5018672;28;20184;-71
2022/08/09 11:40:22;;;;;;;1.02;0.98;;;44.80;29.20;;;;;;5017693;28;20259;-72
2022/08/09 11:42:52;;;;;;;1.23;1.10;;;44.20;30.10;;;;;;5020205;28;20180;-71
2022/08/09 11:45:38;;;;;;;1.75;1.30;;;44.80;29.40;;;;;;5017492;28;20704;-72
2022/08/09 11:48:10;;;;;;;1.33;1.08;;;45.30;28.90;;;;;;5021220;28;20545;-72
2022/08/09 11:51:01;;;;;;;1.50;1.40;;;44.90;29.10;;;;;;5024521;28;20306;-71
2022/08/09 11:53:40;;;;;;;1.27;0.80;;;45.10;28.90;;;;;;5024451;28;20671;-72
2022/08/09 11:56:15;;;;;;;1.25;1.15;;;45.30;28.90;;;;;;5025596;28;20215;-71
2022/08/09 11:58:50;;;;;;;1.55;1.10;;;45.60;28.60;;;;;;5023701;28;20202;-72
2022/08/09 12:01:17;;;;;;;1.02;1.02;;;45.50;28.80;;;;;;5023787;28;20180;-72
2022/08/09 12:03:45;;;;;;;2.05;1.00;;;44.80;29.10;;;;;;5028910;28;20191;-71
2022/08/09 12:06:29;;;;;;;1.15;1.02;;;44.70;29.50;;;;;;5036493;28;20207;-72
2022/08/09 12:08:55;;;;;;;1.05;1.00;;;44.50;29.50;;;;;;5026689;28;20191;-72
2022/08/09 12:11:24;;;;;;;2.20;0.93;;;44.50;29.70;;;;;;5023567;28;20235;-72
2022/08/09 12:13:52;;;;;;;3.10;1.08;;;44.60;29.10;;;;;;5029047;28;20291;-72
2022/08/09 12:16:20;;;;;;;1.55;1.08;;;44.50;29.40;;;;;;5029665;28;20207;-72
2022/08/09 12:18:48;;;;;;;2.53;1.10;;;44.40;29.20;;;;;;5023954;28;20215;-71
2022/08/09 12:21:31;;;;;;;2.80;1.00;;;44.30;29.60;;;;;;5020629;28;20223;-72
2022/08/09 12:24:00;;;;;;;0.85;0.85;;;44.40;29.60;;;;;;5022516;28;20179;-72
2022/08/09 12:26:43;;;;;;;1.25;1.20;;;44.20;29.70;;;;;;5020624;28;20254;-73
2022/08/09 12:29:16;;;;;;;1.75;1.10;;;43.90;29.90;;;;;;5023000;28;20746;-73
2022/08/09 12:31:44;;;;;;;1.10;0.93;;;43.30;30.40;;;;;;5024646;28;20195;-73
2022/08/09 12:34:10;;;;;;;2.00;1.20;;;43.20;30.60;;;;;;5019471;28;20214;-74
2022/08/09 12:36:49;;;;;;;1.15;0.95;;;43.80;29.90;;;;;;5031201;28;20235;-74
2022/08/09 12:39:14;;;;;;;1.05;1.00;;;43.90;29.60;;;;;;5025021;28;20200;-74
2022/08/09 12:41:40;;;;;;;1.15;0.90;;;44.30;29.80;;;;;;5029932;28;20184;-74
2022/08/09 12:44:07;;;;;;;1.05;0.88;;;44.50;29.60;;;;;;5026936;28;20179;-74
2022/08/09 12:46:34;;;;;;;2.08;0.95;;;44.80;29.40;;;;;;5030757;28;20211;-74
2022/08/09 12:49:01;;;;;;;1.23;1.13;;;45.30;29.90;;;;;;5032487;28;20182;-73
2022/08/09 12:51:27;;;;;;;0.98;0.88;;;45.10;29.10;;;;;;5025695;28;20259;-75
2022/08/09 12:53:58;;;;;;;1.08;0.95;;;44.20;29.60;;;;;;5027671;28;20188;-78
2022/08/09 12:56:24;;;;;;;1.20;0.95;;;42.60;30.40;;;;;;5030035;28;20567;-77